sensor_id;sensor_type;location;lat;lon;timestamp;P1;durP1;ratioP1;P2;durP2;ratioP2
14076;SDS011;7114;51.100;13.998;2023-10-19T00:01:54;10.20;;;3.80;;
14076;SDS011;7114;51.100;13.998;2023-10-19T00:04:20;13.10;;;4.33;;
14076;SDS011;7114;51.100;13.998;2023-10-19T00:06:47;12.77;;;4.37;;
14076;SDS011;7114;51.100;13.998;2023-10-19T00:09:15;11.35;;;4.28;;
14076;SDS011;7114;51.100;13.998;2023-10-19T00:11:41;9.63;;;3.95;;
14076;SDS011;7114;51.100;13.998;2023-10-19T00:14:07;10.38;;;4.00;;
14076;SDS011;7114;51.100;13.998;2023-10-19T00:16:41;11.68;;;3.88;;
14076;SDS011;7114;51.100;13.998;2023-10-19T00:19:09;10.17;;;3.93;;
14076;SDS011;7114;51.100;13.998;2023-10-19T00:21:35;11.35;;;3.92;;
14076;SDS011;7114;51.100;13.998;2023-10-19T00:24:16;10.02;;;4.10;;
14076;SDS011;7114;51.100;13.998;2023-10-19T00:26:44;11.32;;;4.10;;
14076;SDS011;7114;51.100;13.998;2023-10-19T00:29:10;14.50;;;4.50;;
14076;SDS011;7114;51.100;13.998;2023-10-19T00:31:54;13.20;;;4.20;;
14076;SDS011;7114;51.100;13.998;2023-10-19T00:34:22;11.38;;;4.20;;
14076;SDS011;7114;51.100;13.998;2023-10-19T00:36:49;10.77;;;3.90;;
14076;SDS011;7114;51.100;13.998;2023-10-19T00:39:17;11.30;;;4.47;;
14076;SDS011;7114;51.100;13.998;2023-10-19T00:41:46;11.15;;;4.47;;
14076;SDS011;7114;51.100;13.998;2023-10-19T00:44:12;12.57;;;5.05;;
14076;SDS011;7114;51.100;13.998;2023-10-19T00:46:42;12.18;;;4.50;;
14076;SDS011;7114;51.100;13.998;2023-10-19T00:49:14;12.27;;;4.50;;
14076;SDS011;7114;51.100;13.998;2023-10-19T00:51:41;11.57;;;4.20;;
14076;SDS011;7114;51.100;13.998;2023-10-19T00:54:21;10.95;;;4.50;;
14076;SDS011;7114;51.100;13.998;2023-10-19T00:56:57;12.48;;;4.60;;
14076;SDS011;7114;51.100;13.998;2023-10-19T00:59:28;10.88;;;4.60;;
14076;SDS011;7114;51.100;13.998;2023-10-19T01:02:00;12.43;;;4.78;;
14076;SDS011;7114;51.100;13.998;2023-10-19T01:04:41;12.13;;;5.17;;
14076;SDS011;7114;51.100;13.998;2023-10-19T01:07:08;12.30;;;4.72;;
14076;SDS011;7114;51.100;13.998;2023-10-19T01:09:38;12.88;;;4.55;;
14076;SDS011;7114;51.100;13.998;2023-10-19T01:12:05;10.40;;;4.70;;
14076;SDS011;7114;51.100;13.998;2023-10-19T01:15:00;11.80;;;4.80;;
14076;SDS011;7114;51.100;13.998;2023-10-19T01:17:27;12.63;;;4.60;;
14076;SDS011;7114;51.100;13.998;2023-10-19T01:19:56;13.70;;;5.25;;
14076;SDS011;7114;51.100;13.998;2023-10-19T01:22:23;12.70;;;4.78;;
14076;SDS011;7114;51.100;13.998;2023-10-19T01:24:53;12.60;;;5.13;;
14076;SDS011;7114;51.100;13.998;2023-10-19T01:27:20;13.13;;;5.20;;
14076;SDS011;7114;51.100;13.998;2023-10-19T01:29:47;13.70;;;5.07;;
14076;SDS011;7114;51.100;13.998;2023-10-19T01:32:17;14.63;;;5.32;;
14076;SDS011;7114;51.100;13.998;2023-10-19T01:34:43;13.27;;;5.53;;
14076;SDS011;7114;51.100;13.998;2023-10-19T01:37:09;15.63;;;5.40;;
14076;SDS011;7114;51.100;13.998;2023-10-19T01:39:37;12.00;;;5.55;;
14076;SDS011;7114;51.100;13.998;2023-10-19T01:42:05;13.53;;;5.80;;
14076;SDS011;7114;51.100;13.998;2023-10-19T01:44:33;12.10;;;5.43;;
14076;SDS011;7114;51.100;13.998;2023-10-19T01:47:01;12.23;;;5.97;;
14076;SDS011;7114;51.100;13.998;2023-10-19T01:49:26;13.93;;;5.90;;
14076;SDS011;7114;51.100;13.998;2023-10-19T01:51:54;13.98;;;5.80;;
14076;SDS011;7114;51.100;13.998;2023-10-19T01:54:20;13.63;;;5.40;;
14076;SDS011;7114;51.100;13.998;2023-10-19T01:56:50;13.13;;;5.40;;
14076;SDS011;7114;51.100;13.998;2023-10-19T01:59:20;15.05;;;6.40;;
14076;SDS011;7114;51.100;13.998;2023-10-19T02:01:47;14.07;;;5.75;;
14076;SDS011;7114;51.100;13.998;2023-10-19T02:04:14;13.70;;;5.45;;
14076;SDS011;7114;51.100;13.998;2023-10-19T02:06:40;13.90;;;5.60;;
14076;SDS011;7114;51.100;13.998;2023-10-19T02:09:06;13.53;;;5.60;;
14076;SDS011;7114;51.100;13.998;2023-10-19T02:11:42;13.48;;;5.55;;
14076;SDS011;7114;51.100;13.998;2023-10-19T02:14:10;14.90;;;5.97;;
14076;SDS011;7114;51.100;13.998;2023-10-19T02:16:41;14.85;;;6.05;;
14076;SDS011;7114;51.100;13.998;2023-10-19T02:19:08;12.38;;;5.70;;
14076;SDS011;7114;51.100;13.998;2023-10-19T02:21:34;15.25;;;6.20;;
14076;SDS011;7114;51.100;13.998;2023-10-19T02:24:05;12.77;;;6.03;;
14076;SDS011;7114;51.100;13.998;2023-10-19T02:26:32;14.60;;;6.40;;
14076;SDS011;7114;51.100;13.998;2023-10-19T02:28:58;14.50;;;6.10;;
14076;SDS011;7114;51.100;13.998;2023-10-19T02:31:25;14.75;;;6.50;;
14076;SDS011;7114;51.100;13.998;2023-10-19T02:33:53;13.55;;;6.22;;
14076;SDS011;7114;51.100;13.998;2023-10-19T02:36:24;13.93;;;5.80;;
14076;SDS011;7114;51.100;13.998;2023-10-19T02:38:53;13.85;;;6.43;;
14076;SDS011;7114;51.100;13.998;2023-10-19T02:41:23;13.93;;;6.20;;
14076;SDS011;7114;51.100;13.998;2023-10-19T02:43:49;12.90;;;6.33;;
14076;SDS011;7114;51.100;13.998;2023-10-19T02:46:26;14.63;;;6.72;;
14076;SDS011;7114;51.100;13.998;2023-10-19T02:48:52;12.17;;;6.00;;
14076;SDS011;7114;51.100;13.998;2023-10-19T02:51:19;14.23;;;6.75;;
14076;SDS011;7114;51.100;13.998;2023-10-19T02:53:44;13.73;;;6.37;;
14076;SDS011;7114;51.100;13.998;2023-10-19T02:56:12;13.95;;;6.97;;
14076;SDS011;7114;51.100;13.998;2023-10-19T02:58:40;14.25;;;6.85;;
14076;SDS011;7114;51.100;13.998;2023-10-19T03:01:12;15.85;;;6.70;;
14076;SDS011;7114;51.100;13.998;2023-10-19T03:03:39;14.77;;;6.70;;
14076;SDS011;7114;51.100;13.998;2023-10-19T03:06:10;13.65;;;6.55;;
14076;SDS011;7114;51.100;13.998;2023-10-19T03:08:36;14.63;;;7.05;;
14076;SDS011;7114;51.100;13.998;2023-10-19T03:11:02;14.95;;;7.10;;
14076;SDS011;7114;51.100;13.998;2023-10-19T03:13:29;13.30;;;6.40;;
14076;SDS011;7114;51.100;13.998;2023-10-19T03:15:56;13.77;;;6.70;;
14076;SDS011;7114;51.100;13.998;2023-10-19T03:18:22;14.45;;;6.65;;
14076;SDS011;7114;51.100;13.998;2023-10-19T03:20:50;14.02;;;7.28;;
14076;SDS011;7114;51.100;13.998;2023-10-19T03:23:17;16.73;;;7.50;;
14076;SDS011;7114;51.100;13.998;2023-10-19T03:25:45;16.67;;;7.18;;
14076;SDS011;7114;51.100;13.998;2023-10-19T03:28:16;14.60;;;7.25;;
14076;SDS011;7114;51.100;13.998;2023-10-19T03:30:44;14.77;;;7.00;;
14076;SDS011;7114;51.100;13.998;2023-10-19T03:33:12;15.97;;;7.20;;
14076;SDS011;7114;51.100;13.998;2023-10-19T03:35:38;15.98;;;7.78;;
14076;SDS011;7114;51.100;13.998;2023-10-19T03:38:06;16.52;;;7.68;;
14076;SDS011;7114;51.100;13.998;2023-10-19T03:40:40;15.38;;;7.40;;
14076;SDS011;7114;51.100;13.998;2023-10-19T03:43:11;15.45;;;7.40;;
14076;SDS011;7114;51.100;13.998;2023-10-19T03:45:42;15.80;;;7.63;;
14076;SDS011;7114;51.100;13.998;2023-10-19T03:48:16;16.63;;;7.45;;
14076;SDS011;7114;51.100;13.998;2023-10-19T03:50:46;17.30;;;7.88;;
14076;SDS011;7114;51.100;13.998;2023-10-19T03:53:16;15.85;;;7.53;;
14076;SDS011;7114;51.100;13.998;2023-10-19T03:55:44;16.10;;;7.88;;
14076;SDS011;7114;51.100;13.998;2023-10-19T03:58:12;16.83;;;8.00;;
14076;SDS011;7114;51.100;13.998;2023-10-19T04:00:39;17.70;;;8.35;;
14076;SDS011;7114;51.100;13.998;2023-10-19T04:03:06;19.95;;;8.52;;
14076;SDS011;7114;51.100;13.998;2023-10-19T04:05:33;19.08;;;8.38;;
14076;SDS011;7114;51.100;13.998;2023-10-19T04:08:03;16.60;;;8.23;;
14076;SDS011;7114;51.100;13.998;2023-10-19T04:10:38;15.70;;;8.30;;
14076;SDS011;7114;51.100;13.998;2023-10-19T04:13:10;17.67;;;9.00;;
14076;SDS011;7114;51.100;13.998;2023-10-19T04:15:37;17.85;;;8.77;;
14076;SDS011;7114;51.100;13.998;2023-10-19T04:18:04;17.73;;;9.18;;
14076;SDS011;7114;51.100;13.998;2023-10-19T04:20:35;17.42;;;8.93;;
14076;SDS011;7114;51.100;13.998;2023-10-19T04:23:19;17.93;;;8.90;;
14076;SDS011;7114;51.100;13.998;2023-10-19T04:25:46;18.13;;;8.90;;
14076;SDS011;7114;51.100;13.998;2023-10-19T04:28:15;20.65;;;9.60;;
14076;SDS011;7114;51.100;13.998;2023-10-19T04:30:45;17.42;;;8.68;;
14076;SDS011;7114;51.100;13.998;2023-10-19T04:33:13;19.10;;;9.48;;
14076;SDS011;7114;51.100;13.998;2023-10-19T04:35:41;19.00;;;10.00;;
14076;SDS011;7114;51.100;13.998;2023-10-19T04:38:08;19.38;;;9.52;;
14076;SDS011;7114;51.100;13.998;2023-10-19T04:40:34;18.40;;;9.35;;
14076;SDS011;7114;51.100;13.998;2023-10-19T04:43:01;21.33;;;9.50;;
14076;SDS011;7114;51.100;13.998;2023-10-19T04:45:30;19.88;;;10.10;;
14076;SDS011;7114;51.100;13.998;2023-10-19T04:47:56;20.33;;;10.23;;
14076;SDS011;7114;51.100;13.998;2023-10-19T04:50:23;21.67;;;10.55;;
14076;SDS011;7114;51.100;13.998;2023-10-19T04:52:49;20.67;;;9.68;;
14076;SDS011;7114;51.100;13.998;2023-10-19T04:55:15;20.58;;;10.10;;
14076;SDS011;7114;51.100;13.998;2023-10-19T04:57:42;21.13;;;9.98;;
14076;SDS011;7114;51.100;13.998;2023-10-19T05:00:09;19.90;;;10.27;;
14076;SDS011;7114;51.100;13.998;2023-10-19T05:02:39;21.15;;;10.48;;
14076;SDS011;7114;51.100;13.998;2023-10-19T05:05:05;22.38;;;10.65;;
14076;SDS011;7114;51.100;13.998;2023-10-19T05:07:32;22.48;;;10.77;;
14076;SDS011;7114;51.100;13.998;2023-10-19T05:09:59;20.52;;;10.20;;
14076;SDS011;7114;51.100;13.998;2023-10-19T05:12:25;22.13;;;11.50;;
14076;SDS011;7114;51.100;13.998;2023-10-19T05:14:51;23.08;;;11.07;;
14076;SDS011;7114;51.100;13.998;2023-10-19T05:17:18;21.15;;;10.63;;
14076;SDS011;7114;51.100;13.998;2023-10-19T05:19:47;22.33;;;10.90;;
14076;SDS011;7114;51.100;13.998;2023-10-19T05:22:14;20.70;;;10.88;;
14076;SDS011;7114;51.100;13.998;2023-10-19T05:24:42;19.97;;;10.37;;
14076;SDS011;7114;51.100;13.998;2023-10-19T05:27:08;23.25;;;11.30;;
14076;SDS011;7114;51.100;13.998;2023-10-19T05:29:35;20.08;;;9.90;;
14076;SDS011;7114;51.100;13.998;2023-10-19T05:32:02;22.50;;;10.90;;
14076;SDS011;7114;51.100;13.998;2023-10-19T05:34:29;19.92;;;10.70;;
14076;SDS011;7114;51.100;13.998;2023-10-19T05:36:58;19.43;;;10.60;;
14076;SDS011;7114;51.100;13.998;2023-10-19T05:39:27;22.05;;;10.80;;
14076;SDS011;7114;51.100;13.998;2023-10-19T05:41:54;20.92;;;10.82;;
14076;SDS011;7114;51.100;13.998;2023-10-19T05:44:20;20.20;;;10.43;;
14076;SDS011;7114;51.100;13.998;2023-10-19T05:46:49;21.25;;;9.88;;
14076;SDS011;7114;51.100;13.998;2023-10-19T05:49:16;21.90;;;10.70;;
14076;SDS011;7114;51.100;13.998;2023-10-19T05:51:42;21.33;;;10.90;;
14076;SDS011;7114;51.100;13.998;2023-10-19T05:54:10;20.80;;;10.38;;
14076;SDS011;7114;51.100;13.998;2023-10-19T05:56:38;20.90;;;10.27;;
14076;SDS011;7114;51.100;13.998;2023-10-19T05:59:04;22.85;;;10.93;;
14076;SDS011;7114;51.100;13.998;2023-10-19T06:01:31;21.07;;;10.47;;
14076;SDS011;7114;51.100;13.998;2023-10-19T06:03:58;20.10;;;10.60;;
14076;SDS011;7114;51.100;13.998;2023-10-19T06:06:24;21.63;;;11.32;;
14076;SDS011;7114;51.100;13.998;2023-10-19T06:08:50;20.10;;;10.38;;
14076;SDS011;7114;51.100;13.998;2023-10-19T06:11:20;21.95;;;11.02;;
14076;SDS011;7114;51.100;13.998;2023-10-19T06:13:46;25.77;;;11.77;;
14076;SDS011;7114;51.100;13.998;2023-10-19T06:16:12;21.50;;;11.65;;
14076;SDS011;7114;51.100;13.998;2023-10-19T06:18:39;24.92;;;12.25;;
14076;SDS011;7114;51.100;13.998;2023-10-19T06:21:08;22.40;;;11.00;;
14076;SDS011;7114;51.100;13.998;2023-10-19T06:23:35;21.67;;;11.10;;
14076;SDS011;7114;51.100;13.998;2023-10-19T06:26:08;21.23;;;10.93;;
14076;SDS011;7114;51.100;13.998;2023-10-19T06:28:37;23.17;;;10.85;;
14076;SDS011;7114;51.100;13.998;2023-10-19T06:31:05;22.13;;;11.60;;
14076;SDS011;7114;51.100;13.998;2023-10-19T06:33:32;23.45;;;11.23;;
14076;SDS011;7114;51.100;13.998;2023-10-19T06:35:59;23.45;;;11.55;;
14076;SDS011;7114;51.100;13.998;2023-10-19T06:38:28;23.90;;;11.57;;
14076;SDS011;7114;51.100;13.998;2023-10-19T06:40:54;23.30;;;11.60;;
14076;SDS011;7114;51.100;13.998;2023-10-19T06:43:21;24.13;;;11.98;;
14076;SDS011;7114;51.100;13.998;2023-10-19T06:45:54;24.48;;;12.15;;
14076;SDS011;7114;51.100;13.998;2023-10-19T06:48:21;22.17;;;11.80;;
14076;SDS011;7114;51.100;13.998;2023-10-19T06:50:47;21.07;;;11.07;;
14076;SDS011;7114;51.100;13.998;2023-10-19T06:53:13;24.55;;;11.65;;
14076;SDS011;7114;51.100;13.998;2023-10-19T06:55:40;24.73;;;11.60;;
14076;SDS011;7114;51.100;13.998;2023-10-19T06:58:06;23.13;;;11.82;;
14076;SDS011;7114;51.100;13.998;2023-10-19T07:00:34;24.40;;;12.02;;
14076;SDS011;7114;51.100;13.998;2023-10-19T07:03:08;24.17;;;11.73;;
14076;SDS011;7114;51.100;13.998;2023-10-19T07:05:35;22.83;;;11.60;;
14076;SDS011;7114;51.100;13.998;2023-10-19T07:08:01;22.40;;;11.45;;
14076;SDS011;7114;51.100;13.998;2023-10-19T07:10:29;22.10;;;11.32;;
14076;SDS011;7114;51.100;13.998;2023-10-19T07:12:56;24.42;;;12.38;;
14076;SDS011;7114;51.100;13.998;2023-10-19T07:15:23;24.20;;;12.23;;
14076;SDS011;7114;51.100;13.998;2023-10-19T07:17:50;24.05;;;11.88;;
14076;SDS011;7114;51.100;13.998;2023-10-19T07:20:20;21.70;;;11.77;;
14076;SDS011;7114;51.100;13.998;2023-10-19T07:22:50;24.33;;;12.10;;
14076;SDS011;7114;51.100;13.998;2023-10-19T07:25:17;22.60;;;11.45;;
14076;SDS011;7114;51.100;13.998;2023-10-19T07:27:45;25.83;;;12.27;;
14076;SDS011;7114;51.100;13.998;2023-10-19T07:30:12;25.83;;;11.63;;
14076;SDS011;7114;51.100;13.998;2023-10-19T07:32:40;24.17;;;11.68;;
14076;SDS011;7114;51.100;13.998;2023-10-19T07:35:08;23.30;;;12.48;;
14076;SDS011;7114;51.100;13.998;2023-10-19T07:37:36;21.20;;;11.40;;
14076;SDS011;7114;51.100;13.998;2023-10-19T07:40:03;23.73;;;11.73;;
14076;SDS011;7114;51.100;13.998;2023-10-19T07:42:31;22.55;;;11.95;;
14076;SDS011;7114;51.100;13.998;2023-10-19T07:45:00;22.73;;;12.07;;
14076;SDS011;7114;51.100;13.998;2023-10-19T07:47:27;23.90;;;12.07;;
14076;SDS011;7114;51.100;13.998;2023-10-19T07:49:53;22.98;;;12.05;;
14076;SDS011;7114;51.100;13.998;2023-10-19T07:52:21;23.73;;;11.97;;
14076;SDS011;7114;51.100;13.998;2023-10-19T07:54:49;24.08;;;12.13;;
14076;SDS011;7114;51.100;13.998;2023-10-19T07:57:16;23.48;;;11.85;;
14076;SDS011;7114;51.100;13.998;2023-10-19T07:59:42;24.23;;;12.43;;
14076;SDS011;7114;51.100;13.998;2023-10-19T08:02:12;24.25;;;11.70;;
14076;SDS011;7114;51.100;13.998;2023-10-19T08:04:38;22.27;;;11.77;;
14076;SDS011;7114;51.100;13.998;2023-10-19T08:07:05;21.90;;;12.27;;
14076;SDS011;7114;51.100;13.998;2023-10-19T08:09:31;22.70;;;11.60;;
14076;SDS011;7114;51.100;13.998;2023-10-19T08:12:01;22.20;;;11.23;;
14076;SDS011;7114;51.100;13.998;2023-10-19T08:14:30;22.70;;;11.88;;
14076;SDS011;7114;51.100;13.998;2023-10-19T08:16:57;21.47;;;11.37;;
14076;SDS011;7114;51.100;13.998;2023-10-19T08:19:23;21.88;;;11.50;;
14076;SDS011;7114;51.100;13.998;2023-10-19T08:21:49;23.33;;;11.63;;
14076;SDS011;7114;51.100;13.998;2023-10-19T08:24:16;24.52;;;11.98;;
14076;SDS011;7114;51.100;13.998;2023-10-19T08:26:43;22.75;;;11.75;;
14076;SDS011;7114;51.100;13.998;2023-10-19T08:29:12;22.87;;;11.77;;
14076;SDS011;7114;51.100;13.998;2023-10-19T08:31:39;21.95;;;11.40;;
14076;SDS011;7114;51.100;13.998;2023-10-19T08:34:05;20.63;;;11.70;;
14076;SDS011;7114;51.100;13.998;2023-10-19T08:36:34;23.92;;;11.43;;
14076;SDS011;7114;51.100;13.998;2023-10-19T08:39:01;23.52;;;12.30;;
14076;SDS011;7114;51.100;13.998;2023-10-19T08:41:30;21.57;;;11.60;;
14076;SDS011;7114;51.100;13.998;2023-10-19T08:43:57;21.67;;;11.02;;
14076;SDS011;7114;51.100;13.998;2023-10-19T08:46:26;21.40;;;11.35;;
14076;SDS011;7114;51.100;13.998;2023-10-19T08:48:53;23.70;;;11.75;;
14076;SDS011;7114;51.100;13.998;2023-10-19T08:51:21;21.33;;;10.93;;
14076;SDS011;7114;51.100;13.998;2023-10-19T08:53:50;21.93;;;11.00;;
14076;SDS011;7114;51.100;13.998;2023-10-19T08:56:19;21.60;;;11.05;;
14076;SDS011;7114;51.100;13.998;2023-10-19T08:58:48;21.35;;;10.93;;
14076;SDS011;7114;51.100;13.998;2023-10-19T09:01:17;21.17;;;11.18;;
14076;SDS011;7114;51.100;13.998;2023-10-19T09:03:46;19.88;;;10.77;;
14076;SDS011;7114;51.100;13.998;2023-10-19T09:06:12;21.43;;;11.10;;
14076;SDS011;7114;51.100;13.998;2023-10-19T09:08:40;20.15;;;10.60;;
14076;SDS011;7114;51.100;13.998;2023-10-19T09:11:07;19.90;;;10.85;;
14076;SDS011;7114;51.100;13.998;2023-10-19T09:13:43;20.00;;;10.60;;
14076;SDS011;7114;51.100;13.998;2023-10-19T09:16:11;18.40;;;10.15;;
14076;SDS011;7114;51.100;13.998;2023-10-19T09:18:39;19.43;;;10.67;;
14076;SDS011;7114;51.100;13.998;2023-10-19T09:21:07;19.95;;;10.40;;
14076;SDS011;7114;51.100;13.998;2023-10-19T09:23:37;18.65;;;9.63;;
14076;SDS011;7114;51.100;13.998;2023-10-19T09:26:04;19.83;;;10.45;;
14076;SDS011;7114;51.100;13.998;2023-10-19T09:28:33;18.65;;;10.48;;
14076;SDS011;7114;51.100;13.998;2023-10-19T09:31:01;18.20;;;10.07;;
14076;SDS011;7114;51.100;13.998;2023-10-19T09:33:28;19.00;;;10.07;;
14076;SDS011;7114;51.100;13.998;2023-10-19T09:35:54;18.45;;;9.52;;
14076;SDS011;7114;51.100;13.998;2023-10-19T09:38:25;18.10;;;9.75;;
14076;SDS011;7114;51.100;13.998;2023-10-19T09:40:51;17.10;;;9.00;;
14076;SDS011;7114;51.100;13.998;2023-10-19T09:43:21;17.17;;;9.57;;
14076;SDS011;7114;51.100;13.998;2023-10-19T09:45:57;17.50;;;9.40;;
14076;SDS011;7114;51.100;13.998;2023-10-19T09:48:27;17.38;;;9.50;;
14076;SDS011;7114;51.100;13.998;2023-10-19T09:50:55;18.80;;;9.10;;
14076;SDS011;7114;51.100;13.998;2023-10-19T09:53:24;17.98;;;9.25;;
14076;SDS011;7114;51.100;13.998;2023-10-19T09:55:51;17.20;;;9.27;;
14076;SDS011;7114;51.100;13.998;2023-10-19T09:58:20;16.90;;;9.10;;
14076;SDS011;7114;51.100;13.998;2023-10-19T10:00:50;15.15;;;8.60;;
14076;SDS011;7114;51.100;13.998;2023-10-19T10:06:08;15.32;;;8.25;;
14076;SDS011;7114;51.100;13.998;2023-10-19T10:08:37;16.47;;;9.10;;
14076;SDS011;7114;51.100;13.998;2023-10-19T10:11:17;17.58;;;9.63;;
14076;SDS011;7114;51.100;13.998;2023-10-19T10:13:48;16.20;;;8.82;;
14076;SDS011;7114;51.100;13.998;2023-10-19T10:16:17;16.92;;;9.60;;
14076;SDS011;7114;51.100;13.998;2023-10-19T10:18:45;17.95;;;9.27;;
14076;SDS011;7114;51.100;13.998;2023-10-19T10:21:13;18.03;;;9.27;;
14076;SDS011;7114;51.100;13.998;2023-10-19T10:23:43;18.23;;;10.00;;
14076;SDS011;7114;51.100;13.998;2023-10-19T10:26:12;17.63;;;9.73;;
14076;SDS011;7114;51.100;13.998;2023-10-19T10:28:40;19.08;;;10.55;;
14076;SDS011;7114;51.100;13.998;2023-10-19T10:31:07;18.00;;;10.13;;
14076;SDS011;7114;51.100;13.998;2023-10-19T10:33:37;18.43;;;9.93;;
14076;SDS011;7114;51.100;13.998;2023-10-19T10:36:04;19.90;;;10.55;;
14076;SDS011;7114;51.100;13.998;2023-10-19T10:38:33;19.08;;;10.32;;
14076;SDS011;7114;51.100;13.998;2023-10-19T10:41:01;20.75;;;10.70;;
14076;SDS011;7114;51.100;13.998;2023-10-19T10:43:28;20.70;;;11.48;;
14076;SDS011;7114;51.100;13.998;2023-10-19T10:46:02;20.70;;;11.10;;
14076;SDS011;7114;51.100;13.998;2023-10-19T10:48:29;22.38;;;11.75;;
14076;SDS011;7114;51.100;13.998;2023-10-19T10:50:55;22.02;;;11.73;;
14076;SDS011;7114;51.100;13.998;2023-10-19T10:53:23;22.65;;;11.70;;
14076;SDS011;7114;51.100;13.998;2023-10-19T10:55:51;20.70;;;11.82;;
14076;SDS011;7114;51.100;13.998;2023-10-19T10:58:19;20.37;;;11.37;;
14076;SDS011;7114;51.100;13.998;2023-10-19T11:00:46;20.77;;;12.20;;
14076;SDS011;7114;51.100;13.998;2023-10-19T11:03:16;22.65;;;12.65;;
14076;SDS011;7114;51.100;13.998;2023-10-19T11:05:42;21.42;;;12.20;;
14076;SDS011;7114;51.100;13.998;2023-10-19T11:08:10;23.08;;;12.40;;
14076;SDS011;7114;51.100;13.998;2023-10-19T11:10:39;24.87;;;12.87;;
14076;SDS011;7114;51.100;13.998;2023-10-19T11:13:08;25.35;;;13.07;;
14076;SDS011;7114;51.100;13.998;2023-10-19T11:15:37;23.58;;;13.02;;
14076;SDS011;7114;51.100;13.998;2023-10-19T11:18:04;23.73;;;12.55;;
14076;SDS011;7114;51.100;13.998;2023-10-19T11:20:32;24.65;;;12.85;;
14076;SDS011;7114;51.100;13.998;2023-10-19T11:22:59;21.80;;;12.37;;
14076;SDS011;7114;51.100;13.998;2023-10-19T11:25:26;24.90;;;12.85;;
14076;SDS011;7114;51.100;13.998;2023-10-19T11:27:54;23.02;;;12.68;;
14076;SDS011;7114;51.100;13.998;2023-10-19T11:30:24;23.35;;;12.90;;
14076;SDS011;7114;51.100;13.998;2023-10-19T11:32:52;23.73;;;13.00;;
14076;SDS011;7114;51.100;13.998;2023-10-19T11:35:22;22.67;;;12.27;;
14076;SDS011;7114;51.100;13.998;2023-10-19T11:37:49;23.85;;;13.15;;
14076;SDS011;7114;51.100;13.998;2023-10-19T11:40:15;23.77;;;13.35;;
14076;SDS011;7114;51.100;13.998;2023-10-19T11:42:42;25.80;;;13.75;;
14076;SDS011;7114;51.100;13.998;2023-10-19T11:45:08;26.95;;;14.20;;
14076;SDS011;7114;51.100;13.998;2023-10-19T11:47:36;25.73;;;14.17;;
14076;SDS011;7114;51.100;13.998;2023-10-19T11:50:04;23.55;;;13.18;;
14076;SDS011;7114;51.100;13.998;2023-10-19T11:52:31;25.05;;;13.77;;
14076;SDS011;7114;51.100;13.998;2023-10-19T11:54:58;23.90;;;13.73;;
14076;SDS011;7114;51.100;13.998;2023-10-19T11:57:24;26.60;;;13.85;;
14076;SDS011;7114;51.100;13.998;2023-10-19T11:59:51;24.87;;;13.77;;
14076;SDS011;7114;51.100;13.998;2023-10-19T12:02:18;26.35;;;14.38;;
14076;SDS011;7114;51.100;13.998;2023-10-19T12:04:44;26.80;;;13.88;;
14076;SDS011;7114;51.100;13.998;2023-10-19T12:07:12;25.08;;;13.90;;
14076;SDS011;7114;51.100;13.998;2023-10-19T12:09:39;23.90;;;13.93;;
14076;SDS011;7114;51.100;13.998;2023-10-19T12:12:06;25.10;;;13.43;;
14076;SDS011;7114;51.100;13.998;2023-10-19T12:14:34;24.88;;;13.40;;
14076;SDS011;7114;51.100;13.998;2023-10-19T12:17:00;26.23;;;13.10;;
14076;SDS011;7114;51.100;13.998;2023-10-19T12:19:27;25.02;;;13.95;;
14076;SDS011;7114;51.100;13.998;2023-10-19T12:21:55;26.83;;;14.32;;
14076;SDS011;7114;51.100;13.998;2023-10-19T12:24:23;22.30;;;13.13;;
14076;SDS011;7114;51.100;13.998;2023-10-19T12:26:53;24.05;;;13.05;;
14076;SDS011;7114;51.100;13.998;2023-10-19T12:29:19;24.10;;;13.68;;
14076;SDS011;7114;51.100;13.998;2023-10-19T12:31:46;24.20;;;13.68;;
14076;SDS011;7114;51.100;13.998;2023-10-19T12:34:12;24.80;;;13.98;;
14076;SDS011;7114;51.100;13.998;2023-10-19T12:36:39;23.90;;;13.60;;
14076;SDS011;7114;51.100;13.998;2023-10-19T12:39:06;23.52;;;13.60;;
14076;SDS011;7114;51.100;13.998;2023-10-19T12:41:34;24.73;;;14.18;;
14076;SDS011;7114;51.100;13.998;2023-10-19T12:44:00;27.08;;;14.80;;
14076;SDS011;7114;51.100;13.998;2023-10-19T12:46:33;25.67;;;14.05;;
14076;SDS011;7114;51.100;13.998;2023-10-19T12:49:01;28.17;;;15.97;;
14076;SDS011;7114;51.100;13.998;2023-10-19T12:51:28;25.70;;;14.55;;
14076;SDS011;7114;51.100;13.998;2023-10-19T12:53:55;29.10;;;15.55;;
14076;SDS011;7114;51.100;13.998;2023-10-19T12:56:21;28.25;;;16.13;;
14076;SDS011;7114;51.100;13.998;2023-10-19T12:58:50;31.88;;;17.33;;
14076;SDS011;7114;51.100;13.998;2023-10-19T13:01:17;28.33;;;15.60;;
14076;SDS011;7114;51.100;13.998;2023-10-19T13:03:44;29.13;;;15.63;;
14076;SDS011;7114;51.100;13.998;2023-10-19T13:06:11;27.45;;;16.27;;
14076;SDS011;7114;51.100;13.998;2023-10-19T13:08:37;29.15;;;16.55;;
14076;SDS011;7114;51.100;13.998;2023-10-19T13:11:05;28.67;;;15.77;;
14076;SDS011;7114;51.100;13.998;2023-10-19T13:13:32;28.20;;;16.33;;
14076;SDS011;7114;51.100;13.998;2023-10-19T13:16:02;32.35;;;17.00;;
14076;SDS011;7114;51.100;13.998;2023-10-19T13:18:30;30.50;;;16.98;;
14076;SDS011;7114;51.100;13.998;2023-10-19T13:20:59;29.23;;;15.90;;
14076;SDS011;7114;51.100;13.998;2023-10-19T13:23:29;28.67;;;16.80;;
14076;SDS011;7114;51.100;13.998;2023-10-19T13:25:58;29.50;;;16.37;;
14076;SDS011;7114;51.100;13.998;2023-10-19T13:28:33;27.95;;;15.70;;
14076;SDS011;7114;51.100;13.998;2023-10-19T13:31:00;30.92;;;16.40;;
14076;SDS011;7114;51.100;13.998;2023-10-19T13:33:28;29.52;;;15.93;;
14076;SDS011;7114;51.100;13.998;2023-10-19T13:35:54;28.83;;;16.55;;
14076;SDS011;7114;51.100;13.998;2023-10-19T13:38:21;29.10;;;16.63;;
14076;SDS011;7114;51.100;13.998;2023-10-19T13:40:47;26.90;;;16.20;;
14076;SDS011;7114;51.100;13.998;2023-10-19T13:43:15;29.90;;;16.25;;
14076;SDS011;7114;51.100;13.998;2023-10-19T13:45:43;28.48;;;15.30;;
14076;SDS011;7114;51.100;13.998;2023-10-19T13:48:10;28.33;;;15.65;;
14076;SDS011;7114;51.100;13.998;2023-10-19T13:50:40;27.27;;;15.70;;
14076;SDS011;7114;51.100;13.998;2023-10-19T13:53:08;30.00;;;16.83;;
14076;SDS011;7114;51.100;13.998;2023-10-19T13:55:35;29.10;;;16.15;;
14076;SDS011;7114;51.100;13.998;2023-10-19T13:58:02;29.15;;;16.70;;
14076;SDS011;7114;51.100;13.998;2023-10-19T14:00:28;29.30;;;17.45;;
14076;SDS011;7114;51.100;13.998;2023-10-19T14:03:00;28.70;;;16.43;;
14076;SDS011;7114;51.100;13.998;2023-10-19T14:05:27;30.27;;;17.25;;
14076;SDS011;7114;51.100;13.998;2023-10-19T14:07:57;27.88;;;15.98;;
14076;SDS011;7114;51.100;13.998;2023-10-19T14:10:23;28.90;;;16.08;;
14076;SDS011;7114;51.100;13.998;2023-10-19T14:12:49;28.73;;;17.05;;
14076;SDS011;7114;51.100;13.998;2023-10-19T14:15:16;27.83;;;16.63;;
14076;SDS011;7114;51.100;13.998;2023-10-19T14:17:44;30.77;;;16.77;;
14076;SDS011;7114;51.100;13.998;2023-10-19T14:20:11;26.67;;;15.82;;
14076;SDS011;7114;51.100;13.998;2023-10-19T14:22:41;30.35;;;16.92;;
14076;SDS011;7114;51.100;13.998;2023-10-19T14:25:09;30.83;;;17.63;;
14076;SDS011;7114;51.100;13.998;2023-10-19T14:27:39;29.77;;;17.03;;
14076;SDS011;7114;51.100;13.998;2023-10-19T14:30:06;28.85;;;16.63;;
14076;SDS011;7114;51.100;13.998;2023-10-19T14:32:35;29.13;;;16.48;;
14076;SDS011;7114;51.100;13.998;2023-10-19T14:35:01;29.27;;;16.77;;